Wichita Mid Continent Airport
KICT : now visible

Airfield :











YOU CAN JOIN US ON...

 
LOGIN :

Register | Disclaimer

   EN    FR    IT 

 









Legend :    VFR   Marginal VFR   IFR   Intensive IFR   Very Intensive IFR
Visi :
Ceiling :
>= 8 km
>= 3000ft
5 to 8 km
1000 to 3000 ft
1500m to 5 km
500 to 1000 ft
800 to 1500m
200 to 500 ft
< 800m
< 200 ft
Symbols :   Thunderstorms  Fog  Heavy snow  Heavy precipitations  Wind > 20 kt






- Airport Elevation : 1333 ft
- IATA code : ICT


KICT - Wichita Mid Continent

CURRENT METAR :
  • 080553Z 00000KT 10SM CLR 14/11 A2978 RMK AO2 SLP076 T01440106 10261 20144 402830144 58001

EXPIRED METARs :
  • 080453Z 32005KT 10SM CLR 17/12 A2979 RMK AO2 SLP078 T01670122
  • 080353Z 26003KT 10SM CLR 18/12 A2979 RMK AO2 SLP078 T01780122

TAF KICT
Valid from the 08 at 06:00 until the 09 at 06:00 UTC


080520Z 0806/0906 01005KT P6SM SKC
FM082000 32007KT P6SM SCT250
FM082300 36016G24KT P6SM SCT250
FM090300 02014KT P6SM SKC



MET'MAP, your aeronautical weather chart ! - Copyright ORBIFLY December 2007 - Disclaimer

ORBIFLY MET'MAP TEAM :

Programming & Development : Alexandra Zaïnal
Concept & original design : Baudouin d'Aumeries
Assistance for programming : Marc-Olivier Méhu
Technical & hardware support : Manuel Goepfert

Contact : metmap@orbifly.com




SOURCES & CREDITS :

   NOAA       Earth
Advisory